createdAt,value
2023-04-09T00:01:09.148Z,7.94
2023-04-09T00:03:54.855Z,7.82
2023-04-09T00:06:40.522Z,7.73
2023-04-09T00:09:26.229Z,7.71
2023-04-09T00:12:11.857Z,7.71
2023-04-09T00:14:57.718Z,7.67
2023-04-09T00:17:43.251Z,7.64
2023-04-09T00:20:28.649Z,7.59
2023-04-09T00:23:14.264Z,7.58
2023-04-09T00:26:01.005Z,7.56
2023-04-09T00:28:46.280Z,7.55
2023-04-09T00:31:31.825Z,7.58
2023-04-09T00:34:17.717Z,7.60
2023-04-09T00:37:03.130Z,7.65
2023-04-09T00:39:48.477Z,7.68
2023-04-09T00:42:36.013Z,7.73
2023-04-09T00:45:23.104Z,7.76
2023-04-09T00:48:08.843Z,7.76
2023-04-09T00:50:54.144Z,7.75
2023-04-09T00:53:39.836Z,7.72
2023-04-09T00:56:27.314Z,7.70
2023-04-09T00:59:13.084Z,7.67
2023-04-09T01:01:58.838Z,7.65
2023-04-09T01:04:44.801Z,7.67
2023-04-09T01:07:59.338Z,7.67
2023-04-09T01:10:59.671Z,7.74
2023-04-09T01:13:49.496Z,7.73
2023-04-09T01:16:38.033Z,7.73
2023-04-09T01:19:49.038Z,7.71
2023-04-09T01:22:56.053Z,7.63
2023-04-09T01:25:59.341Z,7.56
2023-04-09T01:28:57.117Z,7.46
2023-04-09T01:31:44.599Z,7.43
2023-04-09T01:34:31.218Z,7.43
2023-04-09T01:37:18.319Z,7.41
2023-04-09T01:40:05.024Z,7.40
2023-04-09T01:42:51.952Z,7.43
2023-04-09T01:45:38.213Z,7.51
2023-04-09T01:48:24.540Z,7.53
2023-04-09T01:51:10.411Z,7.57
2023-04-09T01:53:56.289Z,7.58
2023-04-09T01:56:44.062Z,7.57
2023-04-09T01:59:29.822Z,7.60
2023-04-09T02:02:28.695Z,7.61
2023-04-09T02:05:19.062Z,7.62
2023-04-09T02:08:08.283Z,7.67
2023-04-09T02:10:58.196Z,7.71
2023-04-09T02:13:44.301Z,7.73
2023-04-09T02:16:32.246Z,7.74
2023-04-09T02:19:17.851Z,7.73
2023-04-09T02:22:05.015Z,7.71
2023-04-09T02:24:50.625Z,7.69
2023-04-09T02:27:36.156Z,7.65
2023-04-09T02:30:21.774Z,7.62
2023-04-09T02:33:07.713Z,7.57
2023-04-09T02:35:53.255Z,7.56
2023-04-09T02:38:42.007Z,7.54
2023-04-09T02:41:27.497Z,7.51
2023-04-09T02:44:12.819Z,7.48
2023-04-09T02:46:58.275Z,7.48
2023-04-09T02:49:43.769Z,7.45
2023-04-09T02:52:29.613Z,7.41
2023-04-09T02:55:15.770Z,7.39
2023-04-09T02:58:01.344Z,7.41
2023-04-09T03:00:47.330Z,7.40
2023-04-09T03:03:33.220Z,7.40
2023-04-09T03:06:18.735Z,7.39
2023-04-09T03:09:04.633Z,7.37
2023-04-09T03:11:49.968Z,7.39
2023-04-09T03:14:35.448Z,7.41
2023-04-09T03:17:21.494Z,7.45
2023-04-09T03:20:07.988Z,7.53
2023-04-09T03:22:57.721Z,7.57
2023-04-09T03:25:50.070Z,7.58
2023-04-09T03:28:37.029Z,7.59
2023-04-09T03:31:22.469Z,7.62
2023-04-09T03:34:08.202Z,7.68
2023-04-09T03:36:54.157Z,7.69
2023-04-09T03:39:43.401Z,7.70
2023-04-09T03:42:29.440Z,7.74
2023-04-09T03:45:15.552Z,7.76
2023-04-09T03:48:04.576Z,7.78
2023-04-09T03:50:50.078Z,7.75
2023-04-09T03:53:43.246Z,7.73
2023-04-09T03:56:28.711Z,7.70
2023-04-09T03:59:14.381Z,7.69
2023-04-09T04:02:03.357Z,7.68
2023-04-09T04:04:51.333Z,7.68
2023-04-09T04:07:37.810Z,7.71
2023-04-09T04:10:28.895Z,7.71
2023-04-09T04:13:14.224Z,7.74
2023-04-09T04:16:10.295Z,7.76
2023-04-09T04:18:59.767Z,7.76
2023-04-09T04:21:46.689Z,7.75
2023-04-09T04:24:32.096Z,7.77
2023-04-09T04:27:17.952Z,7.76
2023-04-09T04:30:04.430Z,7.75
2023-04-09T04:33:07.937Z,7.73
2023-04-09T04:36:12.330Z,7.73
2023-04-09T04:39:01.265Z,7.74
2023-04-09T04:41:52.996Z,7.73
2023-04-09T04:44:41.859Z,7.72
2023-04-09T04:47:39.713Z,7.74
2023-04-09T04:50:25.564Z,7.73
2023-04-09T04:53:15.899Z,7.71
2023-04-09T04:56:07.074Z,7.69
2023-04-09T04:58:53.010Z,7.68
2023-04-09T05:01:39.887Z,7.70
2023-04-09T05:04:29.027Z,7.71
2023-04-09T05:07:15.706Z,7.70
2023-04-09T05:10:09.158Z,7.70
2023-04-09T05:12:58.860Z,7.69
2023-04-09T05:15:50.907Z,7.63
2023-04-09T05:18:36.683Z,7.62
2023-04-09T05:21:22.063Z,7.64
2023-04-09T05:24:09.829Z,7.62
2023-04-09T05:26:55.979Z,7.63
2023-04-09T05:29:42.351Z,7.61
2023-04-09T05:32:29.127Z,7.61
2023-04-09T05:35:15.482Z,7.61
2023-04-09T05:38:02.300Z,7.60
2023-04-09T05:40:49.157Z,7.60
2023-04-09T05:43:34.710Z,7.61
2023-04-09T05:46:20.363Z,7.65
2023-04-09T05:49:09.212Z,7.66
2023-04-09T05:51:56.202Z,7.68
2023-04-09T05:54:45.850Z,7.69
2023-04-09T05:57:35.482Z,7.71
2023-04-09T06:00:23.405Z,7.70
2023-04-09T06:03:09.971Z,7.71
2023-04-09T06:05:55.433Z,7.70
2023-04-09T06:08:40.751Z,7.72
2023-04-09T06:11:26.992Z,7.74
2023-04-09T06:14:16.573Z,7.74
2023-04-09T06:17:02.496Z,7.77
2023-04-09T06:19:47.895Z,7.81
2023-04-09T06:22:33.302Z,7.87
2023-04-09T06:25:18.782Z,7.91
2023-04-09T06:28:04.599Z,7.93
2023-04-09T06:30:50.601Z,7.98
2023-04-09T06:33:35.773Z,8.03
2023-04-09T06:36:21.593Z,8.08
2023-04-09T06:39:07.311Z,8.14
2023-04-09T06:41:52.673Z,8.16
2023-04-09T06:44:57.696Z,8.22
2023-04-09T06:47:43.135Z,8.24
2023-04-09T06:50:28.548Z,8.28
2023-04-09T06:53:15.336Z,8.33
2023-04-09T06:56:00.558Z,8.33
2023-04-09T06:58:46.048Z,8.35
2023-04-09T07:01:31.810Z,8.41
2023-04-09T07:04:17.726Z,8.46
2023-04-09T07:07:03.442Z,8.48
2023-04-09T07:09:49.155Z,8.49
2023-04-09T07:12:35.804Z,8.54
2023-04-09T07:15:21.505Z,8.60
2023-04-09T07:18:07.091Z,8.63
2023-04-09T07:20:53.784Z,8.67
2023-04-09T07:23:39.079Z,8.72
2023-04-09T07:26:24.414Z,8.76
2023-04-09T07:29:11.150Z,8.82
2023-04-09T07:31:56.449Z,8.88
2023-04-09T07:34:42.295Z,8.92
2023-04-09T07:37:27.717Z,8.96
2023-04-09T07:40:13.263Z,9.02
2023-04-09T07:42:58.683Z,9.06
2023-04-09T07:45:44.645Z,9.10
2023-04-09T07:48:30.329Z,9.15
2023-04-09T07:51:16.332Z,9.19
2023-04-09T07:54:01.786Z,9.28
2023-04-09T07:56:47.693Z,9.32
2023-04-09T07:59:35.165Z,9.37
2023-04-09T08:02:21.379Z,9.36
2023-04-09T08:05:07.937Z,9.49
2023-04-09T08:07:53.703Z,9.60
2023-04-09T08:10:39.197Z,9.76
2023-04-09T08:13:25.545Z,9.91
2023-04-09T08:16:10.875Z,10.08
2023-04-09T08:18:57.143Z,10.21
2023-04-09T08:21:48.897Z,10.35
2023-04-09T08:24:34.639Z,10.40
2023-04-09T08:27:20.324Z,10.49
2023-04-09T08:30:06.067Z,10.46
2023-04-09T08:32:51.454Z,10.50
2023-04-09T08:35:38.305Z,10.50
2023-04-09T08:38:23.794Z,10.52
2023-04-09T08:41:18.145Z,10.57
2023-04-09T08:44:03.808Z,10.67
2023-04-09T08:46:49.951Z,10.80
2023-04-09T08:49:35.445Z,10.92
2023-04-09T08:52:33.965Z,11.01
2023-04-09T08:55:19.512Z,11.13
2023-04-09T08:58:07.444Z,11.28
2023-04-09T09:00:52.911Z,11.41
2023-04-09T09:03:59.794Z,11.51
2023-04-09T09:06:45.874Z,11.62
2023-04-09T09:09:31.344Z,11.77
2023-04-09T09:12:35.343Z,11.97
2023-04-09T09:15:29.314Z,12.09
2023-04-09T09:18:14.942Z,12.23
2023-04-09T09:21:14.069Z,12.29
2023-04-09T09:23:59.856Z,12.25
2023-04-09T09:26:45.385Z,12.13
2023-04-09T09:29:31.886Z,12.08
2023-04-09T09:32:17.731Z,12.12
2023-04-09T09:35:06.128Z,12.14
2023-04-09T09:38:02.906Z,12.18
2023-04-09T09:40:49.989Z,12.15
2023-04-09T09:43:44.588Z,12.15
2023-04-09T09:46:35.954Z,12.21
2023-04-09T09:49:21.629Z,12.17
2023-04-09T09:52:11.583Z,12.17
2023-04-09T09:55:01.750Z,12.16
2023-04-09T09:57:48.171Z,12.21
2023-04-09T10:00:37.138Z,12.25
2023-04-09T10:03:28.278Z,12.22
2023-04-09T10:06:14.577Z,12.06
2023-04-09T10:09:03.918Z,11.90
2023-04-09T10:11:49.697Z,11.89
2023-04-09T10:14:36.103Z,11.80
2023-04-09T10:17:22.232Z,11.72
2023-04-09T10:20:16.038Z,11.59
2023-04-09T10:23:06.294Z,11.57
2023-04-09T10:25:52.235Z,11.51
2023-04-09T10:28:38.408Z,11.53
2023-04-09T10:31:24.084Z,11.48
2023-04-09T10:34:10.798Z,11.36
2023-04-09T10:36:57.993Z,11.35
2023-04-09T10:39:48.102Z,11.32
2023-04-09T10:42:37.310Z,11.28
2023-04-09T10:45:22.807Z,11.26
2023-04-09T10:48:16.179Z,11.38
2023-04-09T10:51:06.618Z,11.33
2023-04-09T10:53:54.319Z,11.33
2023-04-09T10:56:39.841Z,11.41
2023-04-09T10:59:25.518Z,11.40
2023-04-09T11:02:31.155Z,11.37
2023-04-09T11:05:32.913Z,11.32
2023-04-09T11:08:18.604Z,11.25
2023-04-09T11:11:04.742Z,11.30
2023-04-09T11:13:50.017Z,11.33
2023-04-09T11:16:35.853Z,11.38
2023-04-09T11:19:21.389Z,11.49
2023-04-09T11:22:07.063Z,11.61
2023-04-09T11:24:54.022Z,11.75
2023-04-09T11:27:39.622Z,11.77
2023-04-09T11:30:25.046Z,11.76
2023-04-09T11:33:10.848Z,11.90
2023-04-09T11:35:56.530Z,12.04
2023-04-09T11:38:41.937Z,12.11
2023-04-09T11:41:33.254Z,12.05
2023-04-09T11:44:18.504Z,12.03
2023-04-09T11:47:04.639Z,11.96
2023-04-09T11:49:50.723Z,11.96
2023-04-09T11:52:36.799Z,11.90
2023-04-09T11:55:27.218Z,11.82
2023-04-09T11:58:13.475Z,11.72
2023-04-09T12:00:59.142Z,11.70
2023-04-09T12:03:44.863Z,11.71
2023-04-09T12:06:31.220Z,11.71
2023-04-09T12:09:16.620Z,11.74
2023-04-09T12:12:02.488Z,11.71
2023-04-09T12:14:47.868Z,11.58
2023-04-09T12:17:34.403Z,11.58
2023-04-09T12:20:36.856Z,11.65
2023-04-09T12:23:21.969Z,11.65
2023-04-09T12:26:07.738Z,11.68
2023-04-09T12:28:53.348Z,11.69
2023-04-09T12:31:38.991Z,11.67
2023-04-09T12:34:24.565Z,11.73
2023-04-09T12:37:09.887Z,11.78
2023-04-09T12:39:55.445Z,11.82
2023-04-09T12:42:45.591Z,11.80
2023-04-09T12:45:30.997Z,11.84
2023-04-09T12:48:16.675Z,11.81
2023-04-09T12:51:02.912Z,11.88
2023-04-09T12:53:48.462Z,11.95
2023-04-09T12:56:33.942Z,12.04
2023-04-09T12:59:19.008Z,12.09
2023-04-09T13:02:04.337Z,12.09
2023-04-09T13:04:51.316Z,12.07
2023-04-09T13:07:36.875Z,12.07
2023-04-09T13:10:22.202Z,12.07
2023-04-09T13:13:12.338Z,12.08
2023-04-09T13:15:57.776Z,12.11
2023-04-09T13:18:43.098Z,12.17
2023-04-09T13:21:28.501Z,12.19
2023-04-09T13:24:13.833Z,12.25
2023-04-09T13:26:59.337Z,12.22
2023-04-09T13:29:44.634Z,12.14
2023-04-09T13:32:30.113Z,12.07
2023-04-09T13:35:15.445Z,11.99
2023-04-09T13:38:01.104Z,11.92
2023-04-09T13:40:46.600Z,11.89
2023-04-09T13:43:31.870Z,11.85
2023-04-09T13:46:17.577Z,11.84
2023-04-09T13:49:03.342Z,11.83
2023-04-09T13:51:50.277Z,11.78
2023-04-09T13:54:36.321Z,11.80
2023-04-09T13:57:21.840Z,11.86
2023-04-09T14:00:08.278Z,11.87
2023-04-09T14:02:53.950Z,11.88
2023-04-09T14:05:39.510Z,11.82
2023-04-09T14:08:24.909Z,11.76
2023-04-09T14:11:13.992Z,11.71
2023-04-09T14:13:59.591Z,11.69
2023-04-09T14:16:44.867Z,11.73
2023-04-09T14:19:30.461Z,11.78
2023-04-09T14:22:16.413Z,11.90
2023-04-09T14:25:02.042Z,11.99
2023-04-09T14:27:47.513Z,12.09
2023-04-09T14:30:32.996Z,12.18
2023-04-09T14:33:18.294Z,12.31
2023-04-09T14:36:03.880Z,12.53
2023-04-09T14:38:49.489Z,12.79
2023-04-09T14:41:36.712Z,13.04
2023-04-09T14:44:22.506Z,13.18
2023-04-09T14:47:08.171Z,13.20
2023-04-09T14:49:53.969Z,13.35
2023-04-09T14:52:39.559Z,13.43
2023-04-09T14:55:25.987Z,13.44
2023-04-09T14:58:12.009Z,13.43
2023-04-09T15:00:57.701Z,13.28
2023-04-09T15:03:45.023Z,13.23
2023-04-09T15:06:32.318Z,13.13
2023-04-09T15:09:18.070Z,12.94
2023-04-09T15:12:03.765Z,12.84
2023-04-09T15:14:49.514Z,12.82
2023-04-09T15:17:35.154Z,12.86
2023-04-09T15:20:20.853Z,12.93
2023-04-09T15:23:06.747Z,13.02
2023-04-09T15:25:52.290Z,13.16
2023-04-09T15:28:37.731Z,13.22
2023-04-09T15:31:23.002Z,13.32
2023-04-09T15:34:08.820Z,13.46
2023-04-09T15:36:54.551Z,13.42
2023-04-09T15:39:40.055Z,13.29
2023-04-09T15:42:25.883Z,13.19
2023-04-09T15:45:11.387Z,13.10
2023-04-09T15:47:57.074Z,12.95
2023-04-09T15:50:42.296Z,12.73
2023-04-09T15:53:29.196Z,12.66
2023-04-09T15:56:15.442Z,12.58
2023-04-09T15:59:02.286Z,12.56
2023-04-09T16:01:47.676Z,12.57
2023-04-09T16:04:33.219Z,12.63
2023-04-09T16:07:18.402Z,12.68
2023-04-09T16:10:04.803Z,12.80
2023-04-09T16:12:50.234Z,12.81
2023-04-09T16:15:36.127Z,12.85
2023-04-09T16:18:21.674Z,12.83
2023-04-09T16:21:07.261Z,12.84
2023-04-09T16:23:52.852Z,12.74
2023-04-09T16:26:40.396Z,12.61
2023-04-09T16:29:25.780Z,12.53
2023-04-09T16:32:11.532Z,12.53
2023-04-09T16:35:00.876Z,12.56
2023-04-09T16:37:46.508Z,12.56
2023-04-09T16:40:31.864Z,12.57
2023-04-09T16:43:17.373Z,12.53
2023-04-09T16:46:02.661Z,12.48
2023-04-09T16:48:48.135Z,12.44
2023-04-09T16:51:33.391Z,12.42
2023-04-09T16:54:19.033Z,12.38
2023-04-09T16:57:04.649Z,12.33
2023-04-09T16:59:50.114Z,12.26
2023-04-09T17:02:36.790Z,12.20
2023-04-09T17:05:22.611Z,12.12
2023-04-09T17:08:08.145Z,12.10
2023-04-09T17:11:01.807Z,12.05
2023-04-09T17:13:47.296Z,11.99
2023-04-09T17:16:33.307Z,11.92
2023-04-09T17:19:18.924Z,11.89
2023-04-09T17:22:05.020Z,11.86
2023-04-09T17:24:50.624Z,11.87
2023-04-09T17:27:36.269Z,11.91
2023-04-09T17:30:21.881Z,11.92
2023-04-09T17:33:07.522Z,11.93
2023-04-09T17:35:53.133Z,11.90
2023-04-09T17:38:38.534Z,11.86
2023-04-09T17:41:24.196Z,11.75
2023-04-09T17:44:09.788Z,11.66
2023-04-09T17:46:55.152Z,11.61
2023-04-09T17:49:40.605Z,11.55
2023-04-09T17:52:26.076Z,11.54
2023-04-09T17:55:13.183Z,11.52
2023-04-09T17:57:58.606Z,11.51
2023-04-09T18:00:44.415Z,11.47
2023-04-09T18:03:30.044Z,11.47
2023-04-09T18:06:15.834Z,11.47
2023-04-09T18:09:01.491Z,11.50
2023-04-09T18:11:47.328Z,11.47
2023-04-09T18:14:32.753Z,11.44
2023-04-09T18:17:18.222Z,11.43
2023-04-09T18:20:03.599Z,11.41
2023-04-09T18:22:49.662Z,11.39
2023-04-09T18:25:35.144Z,11.36
2023-04-09T18:28:20.748Z,11.34
2023-04-09T18:31:06.497Z,11.30
2023-04-09T18:33:52.429Z,11.28
2023-04-09T18:36:37.991Z,11.28
2023-04-09T18:39:23.511Z,11.26
2023-04-09T18:42:09.386Z,11.28
2023-04-09T18:44:55.011Z,11.26
2023-04-09T18:47:40.817Z,11.26
2023-04-09T18:50:26.491Z,11.24
2023-04-09T18:53:12.205Z,11.21
2023-04-09T18:55:57.639Z,11.19
2023-04-09T18:58:43.031Z,11.17
2023-04-09T19:01:28.506Z,11.15
2023-04-09T19:04:14.239Z,11.11
2023-04-09T19:06:59.654Z,11.08
2023-04-09T19:09:44.969Z,11.03
2023-04-09T19:12:30.512Z,11.00
2023-04-09T19:15:16.132Z,10.97
2023-04-09T19:18:01.926Z,10.98
2023-04-09T19:20:48.008Z,10.97
2023-04-09T19:23:36.523Z,10.95
2023-04-09T19:26:22.304Z,10.93
2023-04-09T19:29:08.345Z,10.94
2023-04-09T19:31:53.670Z,10.90
2023-04-09T19:34:39.499Z,10.89
2023-04-09T19:37:28.023Z,10.86
2023-04-09T19:40:15.593Z,10.85
2023-04-09T19:43:01.691Z,10.82
2023-04-09T19:45:47.283Z,10.81
2023-04-09T19:48:32.979Z,10.81
2023-04-09T19:51:20.113Z,10.77
2023-04-09T19:54:05.841Z,10.80
2023-04-09T19:56:51.471Z,10.80
2023-04-09T19:59:39.839Z,10.77
2023-04-09T20:02:25.644Z,10.78
2023-04-09T20:05:11.680Z,10.75
2023-04-09T20:07:57.377Z,10.75
2023-04-09T20:10:45.044Z,10.74
2023-04-09T20:13:30.758Z,10.74
2023-04-09T20:16:16.160Z,10.73
2023-04-09T20:19:01.545Z,10.71
2023-04-09T20:21:46.965Z,10.69
2023-04-09T20:24:32.383Z,10.68
2023-04-09T20:27:18.547Z,10.66
2023-04-09T20:30:04.643Z,10.64
2023-04-09T20:32:50.338Z,10.64
2023-04-09T20:35:36.578Z,10.62
2023-04-09T20:38:22.425Z,10.59
2023-04-09T20:41:07.898Z,10.58
2023-04-09T20:43:53.114Z,10.56
2023-04-09T20:46:38.635Z,10.57
2023-04-09T20:49:24.091Z,10.52
2023-04-09T20:52:09.984Z,10.50
2023-04-09T20:54:57.106Z,10.50
2023-04-09T20:57:42.735Z,10.50
2023-04-09T21:00:27.975Z,10.50
2023-04-09T21:03:14.415Z,10.52
2023-04-09T21:06:00.367Z,10.55
2023-04-09T21:08:46.086Z,10.53
2023-04-09T21:11:31.605Z,10.53
2023-04-09T21:14:16.984Z,10.46
2023-04-09T21:17:02.558Z,10.44
2023-04-09T21:19:49.393Z,10.41
2023-04-09T21:22:35.421Z,10.38
2023-04-09T21:25:21.211Z,10.33
2023-04-09T21:28:07.164Z,10.24
2023-04-09T21:30:52.613Z,10.18
2023-04-09T21:33:39.277Z,10.14
2023-04-09T21:36:26.610Z,10.08
2023-04-09T21:39:12.558Z,10.05
2023-04-09T21:41:58.298Z,9.99
2023-04-09T21:44:43.465Z,9.94
2023-04-09T21:47:28.766Z,9.89
2023-04-09T21:50:14.742Z,9.87
2023-04-09T21:53:00.748Z,9.88
2023-04-09T21:55:46.434Z,9.85
2023-04-09T21:58:31.807Z,9.82
2023-04-09T22:01:26.516Z,9.79
2023-04-09T22:04:14.822Z,9.78
2023-04-09T22:07:00.396Z,9.76
2023-04-09T22:09:45.865Z,9.76
2023-04-09T22:12:31.252Z,9.74
2023-04-09T22:15:17.215Z,9.72
2023-04-09T22:18:02.957Z,9.72
2023-04-09T22:20:48.631Z,9.71
2023-04-09T22:23:33.848Z,9.71
2023-04-09T22:26:19.831Z,9.68
2023-04-09T22:29:06.818Z,9.67
2023-04-09T22:31:52.642Z,9.67
2023-04-09T22:34:38.309Z,9.67
2023-04-09T22:37:23.589Z,9.66
2023-04-09T22:40:14.366Z,9.66
2023-04-09T22:43:00.141Z,9.65
2023-04-09T22:45:53.395Z,9.65
2023-04-09T22:48:44.476Z,9.67
2023-04-09T22:51:41.736Z,9.68
2023-04-09T22:54:27.252Z,9.67
2023-04-09T22:57:12.471Z,9.68
2023-04-09T22:59:57.965Z,9.68
2023-04-09T23:02:43.496Z,9.69
2023-04-09T23:05:29.117Z,9.70
2023-04-09T23:08:14.632Z,9.72
2023-04-09T23:10:59.848Z,9.76
2023-04-09T23:13:45.399Z,9.79
2023-04-09T23:16:31.187Z,9.83
2023-04-09T23:19:16.517Z,9.85
2023-04-09T23:22:02.034Z,9.91
2023-04-09T23:24:47.493Z,9.96
2023-04-09T23:27:32.821Z,9.96
2023-04-09T23:30:18.332Z,9.93
2023-04-09T23:33:04.050Z,9.90
2023-04-09T23:35:49.816Z,9.86
2023-04-09T23:38:35.452Z,9.80
2023-04-09T23:41:21.074Z,9.78
2023-04-09T23:44:06.455Z,9.74
2023-04-09T23:46:53.278Z,9.69
2023-04-09T23:49:38.821Z,9.60
2023-04-09T23:52:26.145Z,9.56
2023-04-09T23:55:12.143Z,9.49
2023-04-09T23:57:57.845Z,9.42
